createdAt,value
2022-10-20T00:01:58.355Z,4.70
2022-10-20T00:04:25.163Z,4.80
2022-10-20T00:06:51.857Z,4.57
2022-10-20T00:09:18.799Z,4.60
2022-10-20T00:11:46.014Z,4.83
2022-10-20T00:14:12.996Z,4.50
2022-10-20T00:16:40.138Z,4.53
2022-10-20T00:19:07.720Z,4.40
2022-10-20T00:21:34.752Z,4.27
2022-10-20T00:24:02.195Z,4.70
2022-10-20T00:26:30.169Z,4.50
2022-10-20T00:28:57.558Z,4.77
2022-10-20T00:31:25.514Z,5.07
2022-10-20T00:33:52.931Z,4.70
2022-10-20T00:36:21.364Z,4.80
2022-10-20T00:38:48.458Z,4.50
2022-10-20T00:41:17.678Z,4.87
2022-10-20T00:43:59.486Z,4.90
2022-10-20T00:46:41.694Z,4.70
2022-10-20T00:49:21.592Z,4.47
2022-10-20T00:51:49.285Z,4.70
2022-10-20T00:54:21.630Z,4.90
2022-10-20T00:56:49.803Z,4.73
2022-10-20T00:59:21.501Z,4.83
2022-10-20T01:01:49.021Z,5.87
2022-10-20T01:04:17.951Z,5.20
2022-10-20T01:06:44.909Z,4.90
2022-10-20T01:09:11.760Z,5.23
2022-10-20T01:11:55.018Z,5.47
2022-10-20T01:14:39.071Z,5.07
2022-10-20T01:17:14.242Z,5.43
2022-10-20T01:20:19.778Z,5.27
2022-10-20T01:23:01.745Z,5.50
2022-10-20T01:25:49.597Z,5.13
2022-10-20T01:28:56.499Z,5.33
2022-10-20T01:31:31.293Z,5.00
2022-10-20T01:34:10.437Z,5.67
2022-10-20T01:36:43.772Z,4.90
2022-10-20T01:39:24.007Z,5.53
2022-10-20T01:41:56.289Z,5.67
2022-10-20T01:44:26.621Z,5.10
2022-10-20T01:46:55.309Z,6.20
2022-10-20T01:49:24.029Z,5.67
2022-10-20T01:51:50.947Z,5.87
2022-10-20T01:54:22.911Z,5.67
2022-10-20T01:57:01.748Z,5.77
2022-10-20T01:59:36.248Z,6.10
2022-10-20T02:02:22.370Z,5.90
2022-10-20T02:04:48.988Z,6.00
2022-10-20T02:07:29.940Z,5.60
2022-10-20T02:10:07.067Z,5.93
2022-10-20T02:12:38.998Z,5.33
2022-10-20T02:15:08.596Z,5.90
2022-10-20T02:17:38.850Z,6.50
2022-10-20T02:20:07.433Z,5.73
2022-10-20T02:22:34.829Z,6.13
2022-10-20T02:25:01.907Z,6.47
2022-10-20T02:27:33.866Z,5.80
2022-10-20T02:30:13.483Z,6.00
2022-10-20T02:32:43.178Z,5.70
2022-10-20T02:35:13.647Z,6.50
2022-10-20T02:37:41.008Z,6.17
2022-10-20T02:40:08.176Z,6.40
2022-10-20T02:42:35.660Z,6.43
2022-10-20T02:45:03.255Z,6.30
2022-10-20T02:47:29.941Z,6.50
2022-10-20T02:49:56.600Z,6.40
2022-10-20T02:52:23.299Z,6.27
2022-10-20T02:54:50.072Z,6.40
2022-10-20T02:57:16.762Z,6.50
2022-10-20T02:59:43.459Z,6.20
2022-10-20T03:02:10.176Z,6.37
2022-10-20T03:04:36.982Z,6.50
2022-10-20T03:07:04.003Z,6.80
2022-10-20T03:09:30.695Z,6.30
2022-10-20T03:11:57.459Z,6.30
2022-10-20T03:14:24.295Z,6.33
2022-10-20T03:16:50.968Z,6.67
2022-10-20T03:19:17.789Z,6.10
2022-10-20T03:21:44.536Z,6.30
2022-10-20T03:24:11.260Z,6.13
2022-10-20T03:26:38.201Z,6.57
2022-10-20T03:29:05.079Z,6.10
2022-10-20T03:31:31.779Z,5.93
2022-10-20T03:33:58.477Z,6.60
2022-10-20T03:36:25.287Z,6.90
2022-10-20T03:38:52.048Z,6.30
2022-10-20T03:41:18.731Z,6.97
2022-10-20T03:43:45.390Z,6.90
2022-10-20T03:46:12.350Z,6.70
2022-10-20T03:48:40.094Z,7.03
2022-10-20T03:51:09.062Z,6.73
2022-10-20T03:53:35.819Z,7.10
2022-10-20T03:56:06.965Z,6.63
2022-10-20T03:58:33.836Z,7.47
2022-10-20T04:01:00.643Z,6.67
2022-10-20T04:03:27.351Z,7.00
2022-10-20T04:05:54.051Z,7.00
2022-10-20T04:08:20.861Z,6.57
2022-10-20T04:10:47.571Z,7.10
2022-10-20T04:13:14.379Z,6.57
2022-10-20T04:15:41.055Z,7.13
2022-10-20T04:18:07.742Z,7.40
2022-10-20T04:20:34.625Z,7.70
2022-10-20T04:23:01.573Z,6.63
2022-10-20T04:25:28.313Z,7.07
2022-10-20T04:27:54.995Z,6.70
2022-10-20T04:30:21.715Z,7.50
2022-10-20T04:32:48.413Z,7.70
2022-10-20T04:35:15.128Z,6.87
2022-10-20T04:37:41.800Z,6.53
2022-10-20T04:40:09.235Z,7.17
2022-10-20T04:42:35.912Z,7.53
2022-10-20T04:45:02.685Z,6.70
2022-10-20T04:47:33.912Z,6.87
2022-10-20T04:50:00.893Z,6.97
2022-10-20T04:52:28.930Z,7.23
2022-10-20T04:54:55.718Z,6.97
2022-10-20T04:57:22.527Z,8.27
2022-10-20T04:59:49.235Z,7.30
2022-10-20T05:02:16.076Z,7.90
2022-10-20T05:04:42.765Z,7.67
2022-10-20T05:07:09.456Z,7.30
2022-10-20T05:09:36.155Z,7.33
2022-10-20T05:12:03.272Z,7.73
2022-10-20T05:14:30.063Z,7.93
2022-10-20T05:16:56.716Z,8.03
2022-10-20T05:19:23.489Z,7.73
2022-10-20T05:21:50.452Z,7.80
2022-10-20T05:24:20.955Z,7.60
2022-10-20T05:26:48.980Z,9.53
2022-10-20T05:29:15.633Z,7.93
2022-10-20T05:31:43.692Z,7.90
2022-10-20T05:34:11.650Z,7.93
2022-10-20T05:36:39.059Z,7.97
2022-10-20T05:39:05.936Z,7.27
2022-10-20T05:41:36.347Z,8.47
2022-10-20T05:44:08.738Z,8.47
2022-10-20T05:46:41.633Z,8.83
2022-10-20T05:49:14.172Z,8.13
2022-10-20T05:51:41.344Z,7.67
2022-10-20T05:54:11.635Z,7.83
2022-10-20T05:56:38.434Z,8.63
2022-10-20T05:59:05.145Z,8.00
2022-10-20T06:01:40.307Z,8.03
2022-10-20T06:04:10.702Z,8.40
2022-10-20T06:06:37.426Z,8.70
2022-10-20T06:09:07.195Z,7.83
2022-10-20T06:11:39.194Z,7.93
2022-10-20T06:14:07.692Z,7.47
2022-10-20T06:16:34.764Z,8.00
2022-10-20T06:19:01.559Z,9.13
2022-10-20T06:21:30.948Z,7.90
2022-10-20T06:24:03.359Z,8.07
2022-10-20T06:26:34.348Z,8.07
2022-10-20T06:29:04.319Z,7.90
2022-10-20T06:31:34.280Z,7.80
2022-10-20T06:34:01.641Z,7.83
2022-10-20T06:36:28.612Z,8.10
2022-10-20T06:38:59.421Z,8.47
2022-10-20T06:41:27.386Z,7.97
2022-10-20T06:43:58.555Z,8.37
2022-10-20T06:46:27.914Z,8.47
2022-10-20T06:48:58.620Z,9.33
2022-10-20T06:51:26.128Z,8.47
2022-10-20T06:53:53.062Z,9.27
2022-10-20T06:56:22.912Z,8.57
2022-10-20T06:58:52.594Z,8.20
2022-10-20T07:01:25.143Z,8.13
2022-10-20T07:03:55.567Z,8.63
2022-10-20T07:06:28.547Z,8.00
2022-10-20T07:08:56.639Z,7.90
2022-10-20T07:11:28.494Z,8.53
2022-10-20T07:13:55.483Z,8.40
2022-10-20T07:16:24.739Z,8.20
2022-10-20T07:18:51.984Z,7.80
2022-10-20T07:21:23.526Z,7.97
2022-10-20T07:23:51.389Z,7.73
2022-10-20T07:26:21.038Z,9.23
2022-10-20T07:28:55.994Z,8.80
2022-10-20T07:31:31.675Z,8.20
2022-10-20T07:34:07.049Z,8.17
2022-10-20T07:36:44.652Z,9.30
2022-10-20T07:39:13.332Z,8.03
2022-10-20T07:41:40.482Z,8.93
2022-10-20T07:44:07.851Z,7.90
2022-10-20T07:46:35.867Z,9.03
2022-10-20T07:51:49.647Z,8.37
2022-10-20T07:54:16.411Z,7.87
2022-10-20T07:56:43.670Z,8.20
2022-10-20T07:59:11.400Z,8.13
2022-10-20T08:01:39.587Z,8.07
2022-10-20T08:04:06.597Z,9.03
2022-10-20T08:06:33.617Z,8.37
2022-10-20T08:09:00.561Z,8.43
2022-10-20T08:11:27.897Z,8.53
2022-10-20T08:13:54.703Z,7.57
2022-10-20T08:16:26.657Z,8.93
2022-10-20T08:19:05.343Z,8.90
2022-10-20T08:21:32.599Z,9.37
2022-10-20T08:23:59.601Z,8.30
2022-10-20T08:26:26.580Z,9.30
2022-10-20T08:28:54.646Z,9.10
2022-10-20T08:31:22.165Z,8.67
2022-10-20T08:33:52.287Z,8.60
2022-10-20T08:36:19.599Z,7.93
2022-10-20T08:38:46.333Z,8.20
2022-10-20T08:41:22.145Z,8.13
2022-10-20T08:43:52.679Z,8.10
2022-10-20T08:46:22.942Z,8.17
2022-10-20T08:48:50.353Z,8.13
2022-10-20T08:51:23.607Z,9.30
2022-10-20T08:53:53.835Z,8.00
2022-10-20T08:56:24.660Z,9.37
2022-10-20T08:58:51.529Z,8.77
2022-10-20T09:01:32.778Z,7.77
2022-10-20T09:04:20.346Z,8.83
2022-10-20T09:07:22.984Z,9.57
2022-10-20T09:09:50.331Z,7.80
2022-10-20T09:12:18.116Z,8.57
2022-10-20T09:14:44.903Z,8.13
2022-10-20T09:17:16.994Z,7.80
2022-10-20T09:19:52.082Z,8.97
2022-10-20T09:22:20.355Z,8.80
2022-10-20T09:24:47.891Z,8.53
2022-10-20T09:27:32.912Z,8.50
2022-10-20T09:30:13.977Z,8.33
2022-10-20T09:32:46.490Z,8.80
2022-10-20T09:35:24.612Z,8.97
2022-10-20T09:38:09.509Z,9.83
2022-10-20T09:40:43.217Z,8.30
2022-10-20T09:43:14.733Z,8.20
2022-10-20T09:45:52.295Z,8.80
2022-10-20T09:48:27.072Z,9.40
2022-10-20T09:50:56.651Z,9.47
2022-10-20T09:53:35.984Z,8.97
2022-10-20T09:56:02.988Z,8.63
2022-10-20T09:58:38.545Z,9.77
2022-10-20T10:01:14.213Z,9.50
2022-10-20T10:03:45.960Z,9.17
2022-10-20T10:06:38.517Z,9.83
2022-10-20T10:12:02.813Z,9.10
2022-10-20T10:14:33.182Z,9.30
2022-10-20T10:17:01.020Z,9.53
2022-10-20T10:19:31.112Z,9.10
2022-10-20T10:22:01.594Z,9.63
2022-10-20T10:24:47.073Z,9.37
2022-10-20T10:27:23.800Z,9.37
2022-10-20T10:29:50.695Z,9.40
2022-10-20T10:32:29.759Z,8.80
2022-10-20T10:35:14.871Z,9.83
2022-10-20T10:37:44.282Z,10.20
2022-10-20T10:40:24.523Z,10.83
2022-10-20T10:43:06.512Z,10.47
2022-10-20T10:45:52.204Z,9.80
2022-10-20T10:48:47.589Z,9.40
2022-10-20T10:51:37.395Z,10.13
2022-10-20T10:54:33.280Z,9.83
2022-10-20T10:57:07.894Z,10.70
2022-10-20T10:59:40.086Z,10.73
2022-10-20T11:02:44.962Z,11.60
2022-10-20T11:05:46.608Z,10.63
2022-10-20T11:08:37.940Z,10.60
2022-10-20T11:11:22.071Z,10.53
2022-10-20T11:14:15.068Z,11.80
2022-10-20T11:16:51.900Z,11.00
2022-10-20T11:19:36.796Z,10.50
2022-10-20T11:22:34.800Z,11.03
2022-10-20T11:25:22.171Z,11.03
2022-10-20T11:27:50.069Z,11.60
2022-10-20T11:30:20.984Z,11.13
2022-10-20T11:32:53.648Z,11.87
2022-10-20T11:35:32.607Z,11.13
2022-10-20T11:38:23.774Z,10.73
2022-10-20T11:41:00.516Z,11.97
2022-10-20T11:43:50.800Z,11.93
2022-10-20T11:46:38.960Z,12.13
2022-10-20T11:49:06.419Z,11.90
2022-10-20T11:51:33.124Z,11.13
2022-10-20T11:54:37.817Z,13.00
2022-10-20T11:57:20.308Z,12.90
2022-10-20T12:00:08.863Z,11.97
2022-10-20T12:03:08.492Z,14.13
2022-10-20T12:06:26.163Z,13.93
2022-10-20T12:09:11.558Z,12.90
2022-10-20T12:11:50.492Z,13.87
2022-10-20T12:14:27.681Z,13.47
2022-10-20T12:16:54.386Z,13.23
2022-10-20T12:19:22.459Z,14.77
2022-10-20T12:21:59.093Z,14.67
2022-10-20T12:24:51.694Z,13.17
2022-10-20T12:27:24.349Z,14.63
2022-10-20T12:29:54.095Z,13.70
2022-10-20T12:32:42.464Z,13.20
2022-10-20T12:35:12.193Z,13.57
2022-10-20T12:37:42.272Z,13.57
2022-10-20T12:40:11.448Z,13.00
2022-10-20T12:42:45.700Z,14.03
2022-10-20T12:45:18.561Z,13.80
2022-10-20T12:47:59.005Z,15.00
2022-10-20T12:50:37.828Z,14.40
2022-10-20T12:53:27.546Z,14.03
2022-10-20T12:56:11.231Z,13.97
2022-10-20T12:58:58.876Z,14.63
2022-10-20T13:01:28.222Z,14.17
2022-10-20T13:03:54.915Z,15.30
2022-10-20T13:06:26.173Z,13.47
2022-10-20T13:09:06.000Z,14.27
2022-10-20T13:11:35.617Z,13.80
2022-10-20T13:14:20.444Z,15.20
2022-10-20T13:17:10.086Z,13.93
2022-10-20T13:19:48.884Z,13.43
2022-10-20T13:22:30.880Z,14.07
2022-10-20T13:24:59.432Z,14.73
2022-10-20T13:27:26.350Z,14.57
2022-10-20T13:29:53.491Z,13.90
2022-10-20T13:32:33.369Z,14.67
2022-10-20T13:35:11.779Z,13.50
2022-10-20T13:37:52.561Z,14.70
2022-10-20T13:40:30.126Z,14.63
2022-10-20T13:43:22.529Z,14.87
2022-10-20T13:45:49.229Z,14.87
2022-10-20T13:48:47.058Z,13.70
2022-10-20T13:51:23.222Z,14.33
2022-10-20T13:53:53.995Z,14.17
2022-10-20T13:56:28.999Z,14.00
2022-10-20T13:59:05.250Z,14.43
2022-10-20T14:01:34.804Z,14.37
2022-10-20T14:04:02.335Z,14.33
2022-10-20T14:06:35.025Z,13.73
2022-10-20T14:09:16.507Z,14.70
2022-10-20T14:11:46.736Z,14.30
2022-10-20T14:14:20.593Z,15.00
2022-10-20T14:16:52.872Z,15.57
2022-10-20T14:19:23.387Z,15.37
2022-10-20T14:21:50.986Z,15.77
2022-10-20T14:24:26.310Z,14.93
2022-10-20T14:26:54.666Z,15.20
2022-10-20T14:29:24.120Z,14.57
2022-10-20T14:31:51.568Z,14.33
2022-10-20T14:34:21.175Z,16.27
2022-10-20T14:36:50.245Z,15.80
2022-10-20T14:39:25.451Z,15.97
2022-10-20T14:41:55.280Z,15.07
2022-10-20T14:44:31.175Z,15.70
2022-10-20T14:47:04.776Z,18.37
2022-10-20T14:49:36.665Z,15.37
2022-10-20T14:52:21.298Z,15.43
2022-10-20T14:54:50.441Z,16.00
2022-10-20T14:57:17.127Z,14.73
2022-10-20T15:00:03.875Z,15.30
2022-10-20T15:02:42.454Z,17.57
2022-10-20T15:05:31.105Z,15.97
2022-10-20T15:08:00.672Z,16.37
2022-10-20T15:10:31.275Z,16.33
2022-10-20T15:12:58.111Z,16.33
2022-10-20T15:15:36.240Z,16.53
2022-10-20T15:18:05.913Z,17.13
2022-10-20T15:20:32.679Z,16.60
2022-10-20T15:23:11.712Z,16.67
2022-10-20T15:26:02.760Z,15.97
2022-10-20T15:28:44.904Z,16.70
2022-10-20T15:31:29.054Z,17.33
2022-10-20T15:33:57.188Z,15.67
2022-10-20T15:36:29.392Z,17.43
2022-10-20T15:38:56.851Z,16.63
2022-10-20T15:41:26.264Z,16.90
2022-10-20T15:43:53.282Z,18.13
2022-10-20T15:46:20.410Z,17.17
2022-10-20T15:48:47.332Z,17.23
2022-10-20T15:51:24.030Z,17.70
2022-10-20T15:53:51.293Z,19.07
2022-10-20T15:56:18.652Z,17.97
2022-10-20T15:58:46.023Z,17.13
2022-10-20T16:01:14.682Z,17.57
2022-10-20T16:03:43.247Z,17.03
2022-10-20T16:06:14.629Z,17.07
2022-10-20T16:08:45.355Z,18.27
2022-10-20T16:11:13.446Z,16.97
2022-10-20T16:13:40.251Z,16.30
2022-10-20T16:16:16.468Z,16.63
2022-10-20T16:18:43.473Z,17.77
2022-10-20T16:21:10.519Z,16.93
2022-10-20T16:23:42.231Z,17.47
2022-10-20T16:26:11.167Z,17.30
2022-10-20T16:28:38.344Z,18.17
2022-10-20T16:31:10.392Z,17.70
2022-10-20T16:33:37.539Z,17.23
2022-10-20T16:38:38.960Z,22.37
2022-10-20T16:41:10.044Z,23.70
2022-10-20T16:43:38.742Z,21.07
2022-10-20T16:46:07.319Z,20.83
2022-10-20T16:48:36.998Z,20.27
2022-10-20T16:51:06.577Z,19.27
2022-10-20T16:53:33.699Z,19.60
2022-10-20T16:56:00.742Z,18.30
2022-10-20T16:58:27.639Z,19.70
2022-10-20T17:00:59.905Z,20.80
2022-10-20T17:03:27.095Z,20.37
2022-10-20T17:05:55.716Z,20.83
2022-10-20T17:08:22.423Z,20.13
2022-10-20T17:10:54.300Z,18.77
2022-10-20T17:13:21.039Z,19.50
2022-10-20T17:15:47.757Z,27.53
2022-10-20T17:18:14.492Z,26.73
2022-10-20T17:20:41.225Z,26.63
2022-10-20T17:23:07.923Z,23.07
2022-10-20T17:25:34.754Z,20.73
2022-10-20T17:28:01.483Z,18.53
2022-10-20T17:30:31.095Z,18.83
2022-10-20T17:32:57.863Z,16.90
2022-10-20T17:35:24.668Z,18.57
2022-10-20T17:37:51.580Z,17.40
2022-10-20T17:40:22.115Z,18.73
2022-10-20T17:42:49.039Z,17.17
2022-10-20T17:45:15.816Z,16.60
2022-10-20T17:47:42.671Z,17.70
2022-10-20T17:50:09.909Z,17.23
2022-10-20T17:52:37.409Z,16.50
2022-10-20T17:55:05.104Z,16.60
2022-10-20T17:57:32.191Z,18.77
2022-10-20T18:00:01.357Z,16.57
2022-10-20T18:02:32.413Z,16.40
2022-10-20T18:04:59.195Z,15.93
2022-10-20T18:07:25.911Z,16.50
2022-10-20T18:09:52.861Z,16.27
2022-10-20T18:12:20.449Z,17.27
2022-10-20T18:14:47.633Z,16.30
2022-10-20T18:17:14.346Z,16.60
2022-10-20T18:19:42.201Z,15.57
2022-10-20T18:22:08.908Z,17.50
2022-10-20T18:24:37.149Z,15.87
2022-10-20T18:27:05.681Z,15.53
2022-10-20T18:29:32.699Z,16.97
2022-10-20T18:31:59.608Z,15.57
2022-10-20T18:34:26.358Z,15.33
2022-10-20T18:36:55.578Z,15.27
2022-10-20T18:39:22.698Z,14.97
2022-10-20T18:41:54.387Z,14.47
2022-10-20T18:44:21.580Z,15.47
2022-10-20T18:46:48.673Z,15.60
2022-10-20T18:49:19.610Z,14.63
2022-10-20T18:51:47.607Z,16.17
2022-10-20T18:54:14.871Z,15.97
2022-10-20T18:56:42.851Z,15.50
2022-10-20T18:59:13.824Z,15.90
2022-10-20T19:01:41.128Z,15.23
2022-10-20T19:04:09.460Z,15.47
2022-10-20T19:06:48.326Z,16.30
2022-10-20T19:09:20.341Z,17.20
2022-10-20T19:14:15.558Z,15.87
2022-10-20T19:16:45.718Z,17.03
2022-10-20T19:19:14.312Z,16.20
2022-10-20T19:21:41.031Z,15.33
2022-10-20T19:24:11.742Z,14.73
2022-10-20T19:26:40.858Z,15.13
2022-10-20T19:29:11.515Z,14.60
2022-10-20T19:31:56.217Z,18.10
2022-10-20T19:34:24.310Z,14.70
2022-10-20T19:36:51.068Z,14.53
2022-10-20T19:41:51.191Z,17.80
2022-10-20T19:44:18.149Z,17.27
2022-10-20T19:46:47.040Z,16.63
2022-10-20T19:49:14.967Z,15.73
2022-10-20T19:51:41.983Z,15.27
2022-10-20T19:54:08.864Z,15.37
2022-10-20T19:56:36.500Z,15.20
2022-10-20T19:59:04.930Z,15.43
2022-10-20T20:01:32.380Z,16.37
2022-10-20T20:03:59.784Z,14.60
2022-10-20T20:06:28.407Z,15.23
2022-10-20T20:08:59.023Z,14.67
2022-10-20T20:11:29.549Z,14.67
2022-10-20T20:14:01.960Z,15.37
2022-10-20T20:16:29.116Z,16.43
2022-10-20T20:18:56.054Z,15.90
2022-10-20T20:21:23.159Z,16.93
2022-10-20T20:23:59.914Z,14.77
2022-10-20T20:26:32.877Z,15.10
2022-10-20T20:28:59.828Z,15.30
2022-10-20T20:31:27.402Z,15.47
2022-10-20T20:33:55.120Z,14.67
2022-10-20T20:36:22.032Z,15.53
2022-10-20T20:38:49.871Z,15.30
2022-10-20T20:41:18.331Z,15.10
2022-10-20T20:43:45.384Z,15.03
2022-10-20T20:46:17.148Z,13.93
2022-10-20T20:48:44.302Z,13.37
2022-10-20T20:51:12.417Z,12.50
2022-10-20T20:53:40.029Z,12.70
2022-10-20T20:56:10.137Z,12.07
2022-10-20T20:58:37.686Z,12.90
2022-10-20T21:01:14.260Z,11.80
2022-10-20T21:03:41.176Z,12.90
2022-10-20T21:06:10.701Z,13.03
2022-10-20T21:08:39.323Z,12.27
2022-10-20T21:11:18.418Z,12.20
2022-10-20T21:13:46.480Z,13.00
2022-10-20T21:16:25.702Z,12.70
2022-10-20T21:18:55.132Z,12.97
2022-10-20T21:21:30.731Z,13.33
2022-10-20T21:23:58.859Z,13.33
2022-10-20T21:26:27.080Z,12.60
2022-10-20T21:28:54.790Z,12.40
2022-10-20T21:31:24.920Z,14.40
2022-10-20T21:33:56.970Z,12.77
2022-10-20T21:36:24.939Z,12.87
2022-10-20T21:38:52.397Z,12.90
2022-10-20T21:41:24.698Z,16.57
2022-10-20T21:43:53.900Z,13.13
2022-10-20T21:46:22.255Z,12.90
2022-10-20T21:48:51.552Z,12.83
2022-10-20T21:51:27.671Z,12.17
2022-10-20T21:53:59.806Z,11.63
2022-10-20T21:56:26.923Z,12.60
2022-10-20T21:58:54.449Z,12.70
2022-10-20T22:01:23.833Z,13.00
2022-10-20T22:03:52.280Z,12.87
2022-10-20T22:06:21.071Z,11.10
2022-10-20T22:08:50.511Z,11.60
2022-10-20T22:11:33.333Z,11.47
2022-10-20T22:14:00.569Z,11.60
2022-10-20T22:16:31.432Z,12.57
2022-10-20T22:19:04.510Z,13.50
2022-10-20T22:21:31.837Z,13.23
2022-10-20T22:23:59.487Z,12.67
2022-10-20T22:26:28.651Z,12.03
2022-10-20T22:28:57.105Z,12.37
2022-10-20T22:31:24.673Z,13.27
2022-10-20T22:33:53.342Z,13.97
2022-10-20T22:36:20.542Z,12.73
2022-10-20T22:38:47.396Z,12.53
2022-10-20T22:41:14.203Z,12.77
2022-10-20T22:43:41.071Z,12.73
2022-10-20T22:46:08.555Z,12.10
2022-10-20T22:48:36.278Z,12.60
2022-10-20T22:51:07.903Z,11.73
2022-10-20T22:53:35.853Z,11.67
2022-10-20T22:56:06.957Z,11.60
2022-10-20T22:58:33.736Z,11.83
2022-10-20T23:01:00.680Z,12.93
2022-10-20T23:03:27.508Z,11.40
2022-10-20T23:05:54.208Z,11.10
2022-10-20T23:08:20.914Z,11.10
2022-10-20T23:10:56.456Z,10.73
2022-10-20T23:13:23.387Z,10.57
2022-10-20T23:15:54.047Z,11.07
2022-10-20T23:18:20.923Z,11.50
2022-10-20T23:20:47.698Z,11.40
2022-10-20T23:23:14.475Z,11.33
2022-10-20T23:25:44.356Z,11.87
2022-10-20T23:28:11.459Z,12.63
2022-10-20T23:30:38.304Z,13.10
2022-10-20T23:33:05.041Z,13.57
2022-10-20T23:35:34.207Z,12.90
2022-10-20T23:38:01.062Z,13.93
2022-10-20T23:40:27.782Z,13.67
2022-10-20T23:42:54.541Z,13.73
2022-10-20T23:45:22.208Z,13.63
2022-10-20T23:47:48.907Z,13.97
2022-10-20T23:50:16.703Z,14.30
2022-10-20T23:52:43.986Z,14.03
2022-10-20T23:55:13.261Z,13.40
2022-10-20T23:57:42.260Z,14.07
